Time;durP1;ratioP1;P1;durP2;ratioP2;P2;SDS_P1;SDS_P2;PMS_P1;PMS_P2;Temp;Humidity;BMP_temperature;BMP_pressure;BME280_temperature;BME280_humidity;BME280_pressure;Samples;Min_cycle;Max_cycle;Signal;HPM_P1;HPM_P2
2022/10/02 00:03:23;;;;;;;2.63;0.93;;;;;;;-144.22;100.00;60274.75;6280703;28;20720;-70
2022/10/02 00:06:38;;;;;;;0.60;0.50;;;;;;;-144.22;100.00;60274.75;6248752;28;20313;-70
2022/10/02 00:09:55;;;;;;;1.90;0.50;;;;;;;-144.22;100.00;60274.75;6280910;28;20239;-71
2022/10/02 00:13:01;;;;;;;0.70;0.70;;;;;;;-144.22;100.00;60274.75;6281489;28;20257;-71
2022/10/02 00:16:09;;;;;;;0.70;0.70;;;;;;;-144.22;100.00;60274.75;6281010;28;20238;-70
2022/10/02 00:19:16;;;;;;;1.00;0.87;;;;;;;-144.22;100.00;60274.75;6279959;28;20237;-71
2022/10/02 00:22:47;;;;;;;2.10;0.83;;;;;;;-144.22;100.00;60274.75;6281080;28;20732;-70
2022/10/02 00:26:03;;;;;;;0.90;0.70;;;;;;;-144.22;100.00;60274.75;6253378;28;20641;-71
2022/10/02 00:29:24;;;;;;;0.57;0.50;;;;;;;-144.22;100.00;60274.75;6261850;28;20227;-71
2022/10/02 00:32:53;;;;;;;0.93;0.50;;;;;;;-144.22;100.00;60274.75;6281619;28;20230;-71
2022/10/02 00:36:08;;;;;;;0.60;0.50;;;;;;;-144.22;100.00;60274.75;6281927;28;20245;-70
2022/10/02 00:39:23;;;;;;;1.10;0.50;;;;;;;-144.22;100.00;60274.75;6279821;28;20227;-71
2022/10/02 00:43:06;;;;;;;1.93;0.50;;;;;;;-144.22;100.00;60274.75;6289950;28;20306;-71
2022/10/02 00:46:10;;;;;;;0.77;0.60;;;;;;;-144.22;100.00;60274.75;6203596;28;20325;-70
2022/10/02 00:49:19;;;;;;;2.67;0.50;;;;;;;-144.22;100.00;60274.75;6139588;28;20233;-70
2022/10/02 00:52:45;;;;;;;0.30;0.30;;;;;;;-144.22;100.00;60274.75;6179161;28;20866;-70
2022/10/02 00:56:11;;;;;;;0.67;0.47;;;;;;;-144.22;100.00;60274.75;6179036;28;20248;-70
2022/10/02 01:00:03;;;;;;;0.77;0.40;;;;;;;-144.22;100.00;60274.75;6178410;28;20392;-70
2022/10/02 01:03:16;;;;;;;2.70;0.50;;;;;;;-144.22;100.00;60274.75;6085203;29;20657;-72
2022/10/02 01:06:21;;;;;;;1.80;0.40;;;;;;;-144.22;100.00;60274.75;6081766;29;20231;-70
2022/10/02 01:09:24;;;;;;;1.23;0.50;;;;;;;-144.22;100.00;60274.75;6084154;29;20232;-70
2022/10/02 01:12:27;;;;;;;0.30;0.30;;;;;;;-144.22;100.00;60274.75;6085175;29;20234;-69
2022/10/02 01:15:36;;;;;;;0.40;0.40;;;;;;;-144.22;100.00;60274.75;6082983;29;20243;-71
2022/10/02 01:18:38;;;;;;;0.70;0.40;;;;;;;-144.22;100.00;60274.75;6083200;29;20411;-70
2022/10/02 01:21:48;;;;;;;0.50;0.40;;;;;;;-144.22;100.00;60274.75;6121698;28;20238;-70
2022/10/02 01:24:58;;;;;;;0.30;0.30;;;;;;;-144.22;100.00;60274.75;6159835;28;20713;-70
2022/10/02 01:28:00;;;;;;;1.43;0.50;;;;;;;-144.22;100.00;60274.75;6179418;28;20629;-71
2022/10/02 01:31:09;;;;;;;0.40;0.40;;;;;;;-144.22;100.00;60274.75;6178828;28;20225;-70
2022/10/02 01:34:11;;;;;;;0.37;0.30;;;;;;;-144.22;100.00;60274.75;6179359;28;20731;-71
2022/10/02 01:37:13;;;;;;;0.40;0.30;;;;;;;-144.22;100.00;60274.75;6177529;28;20730;-71
2022/10/02 01:40:28;;;;;;;0.30;0.30;;;;;;;-144.22;100.00;60274.75;6232161;28;20286;-71
2022/10/02 01:43:55;;;;;;;0.37;0.30;;;;;;;-144.22;100.00;60274.75;6291422;28;20701;-71
2022/10/02 01:47:11;;;;;;;1.00;0.50;;;;;;;-144.22;100.00;60274.75;6287951;28;20698;-70
2022/10/02 01:50:25;;;;;;;1.80;0.33;;;;;;;-144.22;100.00;60274.75;6277522;28;20234;-71
2022/10/02 01:53:55;;;;;;;0.47;0.33;;;;;;;-144.22;100.00;60274.75;6278985;28;20716;-71
2022/10/02 01:57:24;;;;;;;0.40;0.40;;;;;;;-144.22;100.00;60274.75;6267195;28;20245;-71
2022/10/02 02:00:38;;;;;;;1.23;0.50;;;;;;;-144.22;100.00;60274.75;6256274;28;20231;-71
2022/10/02 02:03:52;;;;;;;0.73;0.30;;;;;;;-144.22;100.00;60274.75;6276845;28;20230;-70
2022/10/02 02:07:02;;;;;;;0.23;0.23;;;;;;;-144.22;100.00;60274.75;6278102;28;20732;-71
2022/10/02 02:10:21;;;;;;;1.10;0.40;;;;;;;-144.22;100.00;60274.75;6277396;28;20230;-70
2022/10/02 02:13:41;;;;;;;1.20;0.50;;;;;;;-144.22;100.00;60274.75;6268736;28;20307;-70
2022/10/02 02:16:52;;;;;;;0.47;0.40;;;;;;;-144.22;100.00;60274.75;6276694;28;20732;-71
2022/10/02 02:20:05;;;;;;;1.07;0.40;;;;;;;-144.22;100.00;60274.75;6276969;28;20219;-70
2022/10/02 02:23:16;;;;;;;1.03;0.40;;;;;;;-144.22;100.00;60274.75;6278155;28;20745;-70
2022/10/02 02:26:19;;;;;;;0.53;0.37;;;;;;;-144.22;100.00;60274.75;6259386;28;20233;-70
2022/10/02 02:29:25;;;;;;;1.80;0.50;;;;;;;-144.22;100.00;60274.75;6259638;28;20226;-71
2022/10/02 02:32:33;;;;;;;2.10;0.37;;;;;;;-144.22;100.00;60274.75;6268478;28;20561;-71
2022/10/02 02:35:46;;;;;;;0.73;0.30;;;;;;;-144.22;100.00;60274.75;6277896;28;20599;-71
2022/10/02 02:38:54;;;;;;;0.60;0.40;;;;;;;-144.22;100.00;60274.75;6253505;28;20243;-70
2022/10/02 02:42:02;;;;;;;0.67;0.30;;;;;;;-144.22;100.00;60274.75;6272815;28;20226;-70
2022/10/02 02:45:16;;;;;;;1.30;0.40;;;;;;;-144.22;100.00;60274.75;6252289;28;20587;-70
2022/10/02 02:48:29;;;;;;;1.13;0.50;;;;;;;-144.22;100.00;60274.75;6255879;28;20616;-70
2022/10/02 02:51:39;;;;;;;0.30;0.30;;;;;;;-144.22;100.00;60274.75;6276270;28;20601;-70
2022/10/02 02:54:47;;;;;;;0.37;0.37;;;;;;;-144.22;100.00;60274.75;6277781;28;20230;-69
2022/10/02 02:58:01;;;;;;;1.17;0.43;;;;;;;-144.22;100.00;60274.75;6276451;28;20757;-71
2022/10/02 03:01:03;;;;;;;1.37;0.40;;;;;;;-144.22;100.00;60274.75;6252635;28;20239;-70
2022/10/02 03:04:06;;;;;;;0.77;0.50;;;;;;;-144.22;100.00;60274.75;6259290;28;20328;-70
2022/10/02 03:07:13;;;;;;;0.30;0.30;;;;;;;-144.22;100.00;60274.75;6277898;28;20628;-70
2022/10/02 03:10:22;;;;;;;2.30;0.30;;;;;;;-144.22;100.00;60274.75;6277509;28;20222;-70
2022/10/02 03:13:50;;;;;;;1.60;0.50;;;;;;;-144.22;100.00;60274.75;6276360;28;20725;-70
2022/10/02 03:17:18;;;;;;;0.40;0.40;;;;;;;-144.22;100.00;60274.75;6275656;28;20227;-70
2022/10/02 03:20:51;;;;;;;1.33;0.40;;;;;;;-144.22;100.00;60274.75;6275721;28;20697;-70
2022/10/02 03:23:56;;;;;;;0.40;0.30;;;;;;;-144.22;100.00;60274.75;6260545;28;20223;-70
2022/10/02 03:27:09;;;;;;;0.50;0.50;;;;;;;-144.22;100.00;60274.75;6276309;28;20234;-70
2022/10/02 03:30:13;;;;;;;1.90;0.43;;;;;;;-144.22;100.00;60274.75;6276953;28;20367;-70
2022/10/02 03:33:16;;;;;;;1.93;0.43;;;;;;;-144.22;100.00;60274.75;6261334;28;20733;-71
2022/10/02 03:36:19;;;;;;;0.30;0.30;;;;;;;-144.22;100.00;60274.75;6268689;28;20615;-70
2022/10/02 03:39:21;;;;;;;1.13;0.30;;;;;;;-144.22;100.00;60274.75;6260313;28;20233;-70
2022/10/02 03:42:31;;;;;;;0.80;0.40;;;;;;;-144.22;100.00;60274.75;6278957;28;20692;-70
2022/10/02 03:45:33;;;;;;;0.97;0.40;;;;;;;-144.22;100.00;60274.75;6301806;28;20577;-70
2022/10/02 03:48:55;;;;;;;1.57;0.40;;;;;;;-144.22;100.00;60274.75;6277457;28;20595;-71
2022/10/02 03:51:57;;;;;;;0.77;0.30;;;;;;;-144.22;100.00;60274.75;6258494;28;20238;-70
2022/10/02 03:55:19;;;;;;;1.20;0.20;;;;;;;-144.22;100.00;60274.75;6276550;28;20575;-70
2022/10/02 03:58:21;;;;;;;0.67;0.40;;;;;;;-144.22;100.00;60274.75;6258503;28;20312;-70
2022/10/02 04:01:32;;;;;;;0.47;0.30;;;;;;;-144.22;100.00;60274.75;6277345;28;20348;-70
2022/10/02 04:04:50;;;;;;;0.67;0.40;;;;;;;-144.22;100.00;60274.75;6274043;28;20275;-70
2022/10/02 04:07:57;;;;;;;1.47;0.47;;;;;;;-144.22;100.00;60274.75;6276878;28;20701;-70
2022/10/02 04:11:20;;;;;;;1.23;0.30;;;;;;;-144.22;100.00;60274.75;6280974;28;20680;-70
2022/10/02 04:14:32;;;;;;;0.40;0.40;;;;;;;-144.22;100.00;60274.75;6245923;28;20229;-70
2022/10/02 04:17:48;;;;;;;0.77;0.30;;;;;;;-144.22;100.00;60274.75;6281247;28;20229;-71
2022/10/02 04:20:58;;;;;;;1.20;0.40;;;;;;;-144.22;100.00;60274.75;6262944;28;20241;-70
2022/10/02 04:24:08;;;;;;;0.50;0.30;;;;;;;-144.22;100.00;60274.75;6260105;28;20615;-70
2022/10/02 04:27:16;;;;;;;2.10;0.40;;;;;;;-144.22;100.00;60274.75;6256101;28;20231;-70
2022/10/02 04:30:19;;;;;;;0.83;0.50;;;;;;;-144.22;100.00;60274.75;6279674;28;20260;-70
2022/10/02 04:33:23;;;;;;;0.83;0.63;;;;;;;-144.22;100.00;60274.75;6281321;28;20240;-70
2022/10/02 04:36:39;;;;;;;2.43;0.50;;;;;;;-144.22;100.00;60274.75;6262895;28;20245;-70
2022/10/02 04:40:05;;;;;;;1.10;0.57;;;;;;;-144.22;100.00;60274.75;6262947;28;20221;-70
2022/10/02 04:43:31;;;;;;;1.67;0.60;;;;;;;-144.22;100.00;60274.75;6252882;28;20239;-70
2022/10/02 04:46:39;;;;;;;2.47;0.57;;;;;;;-144.22;100.00;60274.75;6222594;28;20234;-70
2022/10/02 04:49:59;;;;;;;2.00;0.47;;;;;;;-144.22;100.00;60274.75;6260533;28;20624;-70
2022/10/02 04:53:40;;;;;;;3.40;0.60;;;;;;;-144.22;100.00;60274.75;6267870;28;20249;-70
2022/10/02 04:57:39;;;;;;;1.90;0.70;;;;;;;-144.22;100.00;60274.75;6275580;28;20758;-71
2022/10/02 05:00:53;;;;;;;1.17;0.40;;;;;;;-144.22;100.00;60274.75;6179273;28;20752;-70
2022/10/02 05:04:01;;;;;;;1.70;0.57;;;;;;;-144.22;100.00;60274.75;6188788;28;20284;-70
2022/10/02 05:07:52;;;;;;;1.90;0.70;;;;;;;-144.22;100.00;60274.75;6278132;28;20382;-70
2022/10/02 05:11:31;;;;;;;1.53;0.50;;;;;;;-144.22;100.00;60274.75;6203370;28;20235;-70
2022/10/02 05:15:04;;;;;;;0.93;0.70;;;;;;;-144.22;100.00;60274.75;6219890;28;20591;-70
2022/10/02 05:18:28;;;;;;;0.47;0.43;;;;;;;-144.22;100.00;60274.75;6253996;28;20242;-70
2022/10/02 05:21:49;;;;;;;0.80;0.60;;;;;;;-144.22;100.00;60274.75;6254088;28;20230;-70
2022/10/02 05:25:00;;;;;;;1.93;0.80;;;;;;;-144.22;100.00;60274.75;6254604;28;20227;-70
2022/10/02 05:28:15;;;;;;;1.33;0.60;;;;;;;-144.22;100.00;60274.75;6255199;28;20262;-71
2022/10/02 05:31:54;;;;;;;1.23;0.60;;;;;;;-144.22;100.00;60274.75;6237254;28;20238;-70
2022/10/02 05:35:21;;;;;;;1.80;0.67;;;;;;;-144.22;100.00;60274.75;6238022;28;20221;-70
2022/10/02 05:38:53;;;;;;;2.50;0.73;;;;;;;-144.22;100.00;60274.75;6254824;28;20241;-70
2022/10/02 05:42:01;;;;;;;3.70;0.63;;;;;;;-144.22;100.00;60274.75;6254547;28;20271;-70
2022/10/02 05:45:18;;;;;;;3.23;0.97;;;;;;;-144.22;100.00;60274.75;6246761;28;20224;-71
2022/10/02 05:48:45;;;;;;;1.70;0.90;;;;;;;-144.22;100.00;60274.75;6251937;28;20299;-70
2022/10/02 05:51:59;;;;;;;3.03;1.30;;;;;;;-144.22;100.00;60274.75;6246282;28;20231;-71
2022/10/02 05:55:39;;;;;;;2.77;0.83;;;;;;;-144.22;100.00;60274.75;6263603;28;20723;-69
2022/10/02 05:58:50;;;;;;;2.77;0.90;;;;;;;-144.22;100.00;60274.75;6230873;28;20727;-70
2022/10/02 06:01:56;;;;;;;2.17;0.80;;;;;;;-144.22;100.00;60274.75;6245815;28;20231;-70
2022/10/02 06:05:26;;;;;;;4.13;1.00;;;;;;;-144.22;100.00;60274.75;6235482;28;20219;-71
2022/10/02 06:08:51;;;;;;;1.33;0.70;;;;;;;-144.22;100.00;60274.75;6233492;28;20732;-70
2022/10/02 06:12:29;;;;;;;4.57;0.90;;;;;;;-144.22;100.00;60274.75;6227659;28;20643;-72
2022/10/02 06:16:02;;;;;;;3.90;1.40;;;;;;;-144.22;100.00;60274.75;6164482;28;20270;-70
2022/10/02 06:19:18;;;;;;;4.40;0.87;;;;;;;-144.22;100.00;60274.75;6159879;28;20271;-71
2022/10/02 06:22:28;;;;;;;2.87;1.20;;;;;;;-144.22;100.00;60274.75;6159898;28;20237;-70
2022/10/02 06:25:42;;;;;;;3.23;1.57;;;;;;;-144.22;100.00;60274.75;6162882;28;20222;-71
2022/10/02 06:28:53;;;;;;;2.90;0.90;;;;;;;-144.22;100.00;60274.75;6161640;28;20292;-71
2022/10/02 06:32:01;;;;;;;4.40;1.00;;;;;;;-144.22;100.00;60274.75;6176676;28;20763;-71
2022/10/02 06:35:10;;;;;;;1.73;1.10;;;;;;;-144.22;100.00;60274.75;6158748;28;20626;-72
2022/10/02 06:38:44;;;;;;;1.70;0.83;;;;;;;-144.22;100.00;60274.75;6162066;28;21107;-70
2022/10/02 06:41:53;;;;;;;3.37;0.90;;;;;;;-144.22;100.00;60274.75;6177902;28;20228;-69
2022/10/02 06:45:03;;;;;;;3.30;1.00;;;;;;;-144.22;100.00;60274.75;6174295;28;20221;-70
2022/10/02 06:48:11;;;;;;;2.43;0.70;;;;;;;-144.22;100.00;60274.75;6175161;28;20279;-70
2022/10/02 06:51:44;;;;;;;3.57;1.00;;;;;;;-144.22;100.00;60274.75;6240682;28;20218;-71
2022/10/02 06:55:00;;;;;;;1.90;0.90;;;;;;;-144.22;100.00;60274.75;6260028;28;20231;-71
2022/10/02 06:58:29;;;;;;;1.10;0.60;;;;;;;-144.22;100.00;60274.75;6260193;28;20244;-71
2022/10/02 07:01:53;;;;;;;3.70;1.00;;;;;;;-144.22;100.00;60274.75;6275489;28;20256;-71
2022/10/02 07:05:10;;;;;;;2.97;0.90;;;;;;;-144.22;100.00;60274.75;6272275;28;20234;-71
2022/10/02 07:08:36;;;;;;;2.20;1.10;;;;;;;-144.22;100.00;60274.75;6253762;28;20227;-71
2022/10/02 07:11:47;;;;;;;1.17;0.80;;;;;;;-144.22;100.00;60274.75;6257237;28;20723;-70
2022/10/02 07:15:30;;;;;;;1.87;1.03;;;;;;;-144.22;100.00;60274.75;6261251;28;20394;-71
2022/10/02 07:18:32;;;;;;;2.40;0.97;;;;;;;-144.22;100.00;60274.75;6273957;28;20234;-71
2022/10/02 07:21:34;;;;;;;2.93;0.90;;;;;;;-144.22;100.00;60274.75;6259768;28;20222;-70
2022/10/02 07:24:47;;;;;;;2.57;1.07;;;;;;;-144.22;100.00;60274.75;6276049;28;20225;-70
2022/10/02 07:27:57;;;;;;;3.20;0.93;;;;;;;-144.22;100.00;60274.75;6249720;28;20231;-69
2022/10/02 07:31:37;;;;;;;1.37;0.80;;;;;;;-144.22;100.00;60274.75;6267898;28;20675;-69
2022/10/02 07:34:50;;;;;;;1.47;0.97;;;;;;;-144.22;100.00;60274.75;6229838;28;20226;-68
2022/10/02 07:38:12;;;;;;;2.40;0.90;;;;;;;-144.22;100.00;60274.75;6278654;28;20647;-69
2022/10/02 07:41:35;;;;;;;1.40;0.80;;;;;;;-144.22;100.00;60274.75;6278198;28;20223;-69
2022/10/02 07:45:05;;;;;;;2.27;0.73;;;;;;;-144.22;100.00;60274.75;6279730;28;20625;-68
2022/10/02 07:48:07;;;;;;;2.90;0.83;;;;;;;-144.22;100.00;60274.75;6262401;28;20674;-69
2022/10/02 07:51:52;;;;;;;2.20;1.00;;;;;;;-144.22;100.00;60274.75;6272258;28;20217;-68
2022/10/02 07:55:17;;;;;;;1.50;0.70;;;;;;;-144.22;100.00;60274.75;6276314;28;20583;-69
2022/10/02 07:58:19;;;;;;;1.13;0.70;;;;;;;-144.22;100.00;60274.75;6279557;28;20234;-68
2022/10/02 08:01:35;;;;;;;2.33;1.07;;;;;;;-144.22;100.00;60274.75;6252067;28;20737;-68
2022/10/02 08:04:38;;;;;;;2.43;0.77;;;;;;;-144.22;100.00;60274.75;6281205;28;20596;-68
2022/10/02 08:07:40;;;;;;;1.30;0.70;;;;;;;-144.22;100.00;60274.75;6258741;28;20234;-69
2022/10/02 08:10:46;;;;;;;2.17;1.00;;;;;;;-144.22;100.00;60274.75;6262035;28;20717;-69
2022/10/02 08:14:17;;;;;;;1.23;0.90;;;;;;;-144.22;100.00;60274.75;6265057;28;20312;-69
2022/10/02 08:17:44;;;;;;;0.90;0.67;;;;;;;-144.22;100.00;60274.75;6265431;28;20238;-69
2022/10/02 08:20:48;;;;;;;4.13;0.90;;;;;;;-144.22;100.00;60274.75;6270981;28;20597;-69
2022/10/02 08:23:58;;;;;;;1.53;0.80;;;;;;;-144.22;100.00;60274.75;6277985;28;20218;-70
2022/10/02 08:27:08;;;;;;;1.80;0.70;;;;;;;-144.22;100.00;60274.75;6279312;28;20229;-69
2022/10/02 08:30:14;;;;;;;1.40;0.60;;;;;;;-144.22;100.00;60274.75;6277425;28;20241;-69
2022/10/02 08:33:21;;;;;;;2.60;0.67;;;;;;;-144.22;100.00;60274.75;6279685;28;20218;-69
2022/10/02 08:36:48;;;;;;;2.57;0.60;;;;;;;-144.22;100.00;60274.75;6265546;28;20304;-70
2022/10/02 08:40:08;;;;;;;1.10;0.73;;;;;;;-144.22;100.00;60274.75;6268492;28;20222;-69
2022/10/02 08:43:23;;;;;;;2.40;0.77;;;;;;;-144.22;100.00;60274.75;6279456;28;20215;-71
2022/10/02 08:46:46;;;;;;;2.20;0.60;;;;;;;-144.22;100.00;60274.75;6268206;28;20241;-70
2022/10/02 08:50:10;;;;;;;1.30;0.60;;;;;;;-144.22;100.00;60274.75;6267937;28;20223;-71
2022/10/02 08:53:37;;;;;;;3.13;0.70;;;;;;;-144.22;100.00;60274.75;6262087;28;20617;-71
2022/10/02 08:56:48;;;;;;;1.03;0.70;;;;;;;-144.22;100.00;60274.75;6269186;28;20230;-71
2022/10/02 09:00:08;;;;;;;2.00;0.80;;;;;;;-144.22;100.00;60274.75;6277885;28;20257;-70
2022/10/02 09:03:44;;;;;;;1.57;0.70;;;;;;;-144.22;100.00;60274.75;6263835;28;20226;-71
2022/10/02 09:07:25;;;;;;;0.90;0.77;;;;;;;-144.22;100.00;60274.75;6262117;28;20230;-71
2022/10/02 09:10:47;;;;;;;2.60;0.80;;;;;;;-144.22;100.00;60274.75;6280508;28;20284;-71
2022/10/02 09:14:09;;;;;;;1.03;0.60;;;;;;;-144.22;100.00;60274.75;6280047;28;20223;-71
2022/10/02 09:17:32;;;;;;;0.87;0.70;;;;;;;-144.22;100.00;60274.75;6264585;28;20254;-71
2022/10/02 09:21:14;;;;;;;1.00;0.70;;;;;;;-144.22;100.00;60274.75;6246340;28;20234;-71
2022/10/02 09:24:22;;;;;;;2.23;0.63;;;;;;;-144.22;100.00;60274.75;6255745;28;20596;-71
2022/10/02 09:28:05;;;;;;;0.77;0.60;;;;;;;-144.22;100.00;60274.75;6266073;28;20620;-71
2022/10/02 09:31:29;;;;;;;1.60;0.77;;;;;;;-144.22;100.00;60274.75;6219369;28;20215;-71
2022/10/02 09:34:38;;;;;;;1.20;0.80;;;;;;;-144.22;100.00;60274.75;6240183;28;20239;-70
2022/10/02 09:38:09;;;;;;;0.60;0.57;;;;;;;-144.22;100.00;60274.75;6279613;28;20353;-70
2022/10/02 09:41:30;;;;;;;3.00;0.70;;;;;;;-144.22;100.00;60274.75;6275810;28;20214;-71
2022/10/02 09:45:02;;;;;;;1.30;0.77;;;;;;;-144.22;100.00;60274.75;6280758;28;20226;-71
2022/10/02 09:49:02;;;;;;;1.43;0.70;;;;;;;-144.22;100.00;60274.75;6274406;28;20229;-71
2022/10/02 09:52:44;;;;;;;2.30;0.73;;;;;;;-144.22;100.00;60274.75;6197704;28;20709;-71
2022/10/02 09:55:58;;;;;;;2.47;0.70;;;;;;;-144.22;100.00;60274.75;6232081;28;20228;-71
2022/10/02 09:59:02;;;;;;;1.10;0.73;;;;;;;-144.22;100.00;60274.75;6283535;28;20719;-71
2022/10/02 10:02:46;;;;;;;1.87;0.70;;;;;;;-144.22;100.00;60274.75;6287285;28;20234;-71
2022/10/02 10:06:10;;;;;;;2.57;0.60;;;;;;;-144.22;100.00;60274.75;6154385;28;20234;-71
2022/10/02 10:09:39;;;;;;;0.87;0.50;;;;;;;-144.22;100.00;60274.75;6154473;28;20261;-72
2022/10/02 10:13:19;;;;;;;1.17;0.80;;;;;;;-144.22;100.00;60274.75;6138687;28;20783;-72
2022/10/02 10:16:52;;;;;;;2.30;0.70;;;;;;;-144.22;100.00;60274.75;6124716;29;20293;-72
2022/10/02 10:20:33;;;;;;;2.80;0.90;;;;;;;-144.22;100.00;60274.75;6150618;28;20241;-71
2022/10/02 10:24:22;;;;;;;2.07;0.70;;;;;;;-144.22;100.00;60274.75;6149246;28;20226;-72
2022/10/02 10:27:47;;;;;;;2.03;0.90;;;;;;;-144.22;100.00;60274.75;6065413;28;20222;-70
2022/10/02 10:31:20;;;;;;;3.17;0.93;;;;;;;-144.22;100.00;60274.75;6146164;28;20774;-71
2022/10/02 10:34:34;;;;;;;0.80;0.60;;;;;;;-144.22;100.00;60274.75;6152860;28;20244;-71
2022/10/02 10:41:41;;;;;;;2.00;0.87;;;;;;;-144.22;100.00;60274.75;6216781;28;20287;-72
2022/10/02 10:44:56;;;;;;;2.37;0.80;;;;;;;-144.22;100.00;60274.75;6277059;28;20230;-71
2022/10/02 10:48:19;;;;;;;2.03;0.60;;;;;;;-144.22;100.00;60274.75;6265376;28;20235;-71
2022/10/02 10:51:47;;;;;;;3.97;0.80;;;;;;;-144.22;100.00;60274.75;6282954;28;20374;-71
2022/10/02 10:55:17;;;;;;;2.17;0.70;;;;;;;-144.22;100.00;60274.75;6272752;28;20241;-71
2022/10/02 10:58:57;;;;;;;1.57;0.70;;;;;;;-144.22;100.00;60274.75;6260043;28;20573;-70
2022/10/02 11:02:18;;;;;;;1.90;0.80;;;;;;;-144.22;100.00;60274.75;6280747;28;20211;-70
2022/10/02 11:06:02;;;;;;;0.93;0.53;;;;;;;-144.22;100.00;60274.75;6266677;28;20319;-70
2022/10/02 11:09:13;;;;;;;2.03;0.97;;;;;;;-144.22;100.00;60274.75;6269909;28;20229;-71
2022/10/02 11:12:52;;;;;;;1.63;0.60;;;;;;;-144.22;100.00;60274.75;6263448;28;20221;-70
2022/10/02 11:16:06;;;;;;;1.43;0.80;;;;;;;-144.22;100.00;60274.75;6276160;28;20257;-70
2022/10/02 11:19:08;;;;;;;2.20;0.80;;;;;;;-144.22;100.00;60274.75;6261962;28;20231;-69
2022/10/02 11:22:37;;;;;;;3.60;0.70;;;;;;;-144.22;100.00;60274.75;6277349;28;20591;-70
2022/10/02 11:26:17;;;;;;;0.67;0.53;;;;;;;-144.22;100.00;60274.75;6283094;28;20229;-71
2022/10/02 11:29:35;;;;;;;2.43;0.60;;;;;;;-144.22;100.00;60274.75;6281088;28;20571;-70
2022/10/02 11:33:03;;;;;;;0.70;0.43;;;;;;;-144.22;100.00;60274.75;6276135;28;20219;-70
2022/10/02 11:36:11;;;;;;;1.33;0.60;;;;;;;-144.22;100.00;60274.75;6280003;28;20683;-71
2022/10/02 11:39:40;;;;;;;1.00;0.50;;;;;;;-144.22;100.00;60274.75;6263049;28;20256;-71
2022/10/02 11:43:10;;;;;;;0.93;0.47;;;;;;;-144.22;100.00;60274.75;6269204;28;20225;-71
2022/10/02 11:46:35;;;;;;;0.77;0.40;;;;;;;-144.22;100.00;60274.75;6278757;28;20233;-71
2022/10/02 11:49:52;;;;;;;2.03;0.77;;;;;;;-144.22;100.00;60274.75;6283539;28;20235;-71
2022/10/02 11:53:40;;;;;;;1.53;0.50;;;;;;;-144.22;100.00;60274.75;6306055;28;20263;-71
2022/10/02 11:57:18;;;;;;;1.50;0.50;;;;;;;-144.22;100.00;60274.75;6307500;28;20234;-70
2022/10/02 12:00:55;;;;;;;1.63;0.40;;;;;;;-144.22;100.00;60274.75;6307372;28;20214;-71
2022/10/02 12:04:12;;;;;;;1.37;0.60;;;;;;;-144.22;100.00;60274.75;6306587;28;20222;-71
2022/10/02 12:07:29;;;;;;;1.70;0.83;;;;;;;-144.22;100.00;60274.75;6307826;28;20222;-71
2022/10/02 12:10:46;;;;;;;2.77;0.80;;;;;;;-144.22;100.00;60274.75;6265458;28;20736;-70
2022/10/02 12:14:17;;;;;;;0.93;0.43;;;;;;;-144.22;100.00;60274.75;6247513;28;20292;-71
2022/10/02 12:17:31;;;;;;;1.40;0.60;;;;;;;-144.22;100.00;60274.75;6250234;28;20340;-72
2022/10/02 12:28:01;;;;;;;1.37;0.80;;;;;;;-144.22;100.00;60274.75;6269879;28;21015;-70
2022/10/02 12:31:13;;;;;;;2.17;0.63;;;;;;;-144.22;100.00;60274.75;6281248;28;20640;-69
2022/10/02 12:34:34;;;;;;;3.80;0.93;;;;;;;-144.22;100.00;60274.75;6279972;28;20720;-70
2022/10/02 12:37:55;;;;;;;1.03;0.50;;;;;;;-144.22;100.00;60274.75;6281321;28;20230;-69
2022/10/02 12:41:34;;;;;;;2.77;0.77;;;;;;;-144.22;100.00;60274.75;6264839;28;20237;-70
2022/10/02 12:45:09;;;;;;;1.83;0.63;;;;;;;-144.22;100.00;60274.75;6264772;28;20769;-69
2022/10/02 12:48:34;;;;;;;2.37;0.40;;;;;;;-144.22;100.00;60274.75;6281500;28;20642;-70
2022/10/02 12:51:56;;;;;;;1.17;0.47;;;;;;;-144.22;100.00;60274.75;6289789;28;20226;-69
2022/10/02 12:55:45;;;;;;;0.80;0.40;;;;;;;-144.22;100.00;60274.75;6305762;28;20226;-69
2022/10/02 12:59:22;;;;;;;1.83;0.47;;;;;;;-144.22;100.00;60274.75;6297255;28;20237;-69
2022/10/02 13:02:42;;;;;;;2.17;0.80;;;;;;;-144.22;100.00;60274.75;6306396;28;20234;-70
2022/10/02 13:06:23;;;;;;;1.30;0.50;;;;;;;-144.22;100.00;60274.75;6256271;28;20280;-69
2022/10/02 13:09:44;;;;;;;1.00;0.53;;;;;;;-144.22;100.00;60274.75;6238097;28;20357;-70
2022/10/02 13:13:14;;;;;;;1.87;0.60;;;;;;;-144.22;100.00;60274.75;6254570;28;20223;-70
2022/10/02 13:16:19;;;;;;;2.63;0.60;;;;;;;-144.22;100.00;60274.75;6221391;28;20235;-69
2022/10/02 13:19:37;;;;;;;1.90;0.60;;;;;;;-144.22;100.00;60274.75;6254622;28;20601;-69
2022/10/02 13:22:51;;;;;;;1.90;0.87;;;;;;;-144.22;100.00;60274.75;6256183;28;20409;-69
2022/10/02 13:26:14;;;;;;;1.07;0.70;;;;;;;-144.22;100.00;60274.75;6255295;28;20227;-70
2022/10/02 13:29:31;;;;;;;1.60;0.50;;;;;;;-144.22;100.00;60274.75;6254991;28;20232;-69
2022/10/02 13:32:46;;;;;;;2.67;0.70;;;;;;;-144.22;100.00;60274.75;6255271;28;20284;-69
2022/10/02 13:36:16;;;;;;;2.00;0.50;;;;;;;-144.22;100.00;60274.75;6279658;28;20234;-69
2022/10/02 13:39:33;;;;;;;1.27;0.50;;;;;;;-144.22;100.00;60274.75;6279420;28;20673;-69
2022/10/02 13:42:51;;;;;;;2.20;0.53;;;;;;;-144.22;100.00;60274.75;6279559;28;20693;-69
2022/10/02 13:45:56;;;;;;;2.17;0.63;;;;;;;-144.22;100.00;60274.75;6280000;28;20261;-69
2022/10/02 13:49:13;;;;;;;0.50;0.47;;;;;;;-144.22;100.00;60274.75;6262321;28;20305;-69
2022/10/02 13:52:31;;;;;;;0.40;0.40;;;;;;;-144.22;100.00;60274.75;6300863;28;20321;-69
2022/10/02 13:55:45;;;;;;;0.93;0.40;;;;;;;-144.22;100.00;60274.75;6304571;28;20321;-69
2022/10/02 13:59:14;;;;;;;1.53;0.50;;;;;;;-144.22;100.00;60274.75;6308858;28;20225;-69
2022/10/02 14:02:51;;;;;;;0.97;0.50;;;;;;;-144.22;100.00;60274.75;6304679;28;20222;-68
2022/10/02 14:06:15;;;;;;;0.80;0.40;;;;;;;-144.22;100.00;60274.75;6233386;28;20236;-70
2022/10/02 14:09:47;;;;;;;2.20;0.50;;;;;;;-144.22;100.00;60274.75;6237137;28;20254;-69
2022/10/02 14:12:54;;;;;;;2.30;0.50;;;;;;;-144.22;100.00;60274.75;6252762;28;20227;-68
2022/10/02 14:16:13;;;;;;;1.00;0.60;;;;;;;-144.22;100.00;60274.75;6257633;28;20716;-69
2022/10/02 14:19:39;;;;;;;1.47;0.50;;;;;;;-144.22;100.00;60274.75;6255162;28;20235;-69
2022/10/02 14:22:47;;;;;;;1.43;0.50;;;;;;;-144.22;100.00;60274.75;6254504;28;20255;-69
2022/10/02 14:26:34;;;;;;;1.57;0.40;;;;;;;-144.22;100.00;60274.75;6254814;28;20235;-69
2022/10/02 14:29:44;;;;;;;1.20;0.60;;;;;;;-144.22;100.00;60274.75;6255118;28;20667;-69
2022/10/02 14:33:07;;;;;;;1.53;0.50;;;;;;;-144.22;100.00;60274.75;6292664;28;20238;-69
2022/10/02 14:36:27;;;;;;;0.63;0.40;;;;;;;-144.22;100.00;60274.75;6253831;28;20590;-69
2022/10/02 14:39:40;;;;;;;1.07;0.50;;;;;;;-144.22;100.00;60274.75;6253615;28;20680;-70
2022/10/02 14:43:06;;;;;;;1.90;0.50;;;;;;;-144.22;100.00;60274.75;6253633;28;20227;-69
2022/10/02 14:46:36;;;;;;;0.40;0.40;;;;;;;-144.22;100.00;60274.75;6253299;28;20321;-69
2022/10/02 14:50:02;;;;;;;0.87;0.40;;;;;;;-144.22;100.00;60274.75;6272382;28;20233;-68
2022/10/02 14:53:31;;;;;;;1.30;0.70;;;;;;;-144.22;100.00;60274.75;6284855;28;20230;-69
2022/10/02 14:56:56;;;;;;;1.70;0.57;;;;;;;-144.22;100.00;60274.75;6284208;28;20274;-69
2022/10/02 15:00:16;;;;;;;1.27;0.40;;;;;;;-144.22;100.00;60274.75;6263839;28;20261;-69
2022/10/02 15:03:24;;;;;;;1.30;0.40;;;;;;;-144.22;100.00;60274.75;6277343;28;20227;-69
2022/10/02 15:06:31;;;;;;;1.27;0.57;;;;;;;-144.22;100.00;60274.75;6245117;28;20205;-69
2022/10/02 15:10:05;;;;;;;4.80;0.70;;;;;;;-144.22;100.00;60274.75;6302681;28;20482;-69
2022/10/02 15:13:43;;;;;;;1.70;0.53;;;;;;;-144.22;100.00;60274.75;6302992;28;20233;-68
2022/10/02 15:20:28;;;;;;;1.97;0.73;;;;;;;-144.22;100.00;60274.75;6285638;28;20689;-68
2022/10/02 15:23:30;;;;;;;2.63;0.50;;;;;;;-144.22;100.00;60274.75;6260299;28;20604;-69